PWSweather.com
Personal Weather Stations
Station Observations
BRISTOL
HorfieldFilton, BristolGB BS7

HorfieldFiltonBristolGB BS7

Lat: 51.5, Lon: -2.576

Elevation: 272

Station Type: Davis VP2

http://www.martynhicks.co.uk/weather/data.php

Latest ConditionsUpdated 4:10:01 AM GMT Tuesday, Sep 2, 2014
Currently Today's Max Today's Min Today's Average
Temperature 50.4°F10.2°C 55.1°F12.8°C 50.4°F10.2°C 52.9°F11.6°C
Dew Point 47.6°F8.7°C 49.0°F9.4°C 47.4°F8.6°C 48.3°F9.1°C
Winds 0.1 mph NNE0.2 kmh NNE 2.8 mph NNE4.5 kmh NNE - 0.7 mph 1.1 kmh
Wind Gusts -- 7.0 mph11.3 kmh - -
Humidity 90% 90% 80% 84%
Pressure 30.20 in1022.7 mb 30.22 in1023.4 mb 30.20 in1022.7 mb -
Hour Temp Dew Point Humidity Winds Wind Gusts Pressure Precip Precip Rate Daily Precip Total
04:10 AM 50.4°F10.2°C 47.6°F8.7°C 90% 0.1 mph NNE0.2 kmh NNE -- 30.20 in1022.7 mb 0.00 in0.0 mm 0.00 in/hr0.0 mm/hr 0.00 in0.0 mm
04:00 AM 50.5°F10.3°C 47.7°F8.7°C 90% 0.4 mph NNE0.6 kmh NNE 2.0 mph3.2 kmh 30.20 in1022.7 mb 0.00 in0.0 mm 0.00 in/hr0.0 mm/hr 0.00 in0.0 mm
03:50 AM 50.5°F10.3°C 47.4°F8.6°C 89% Calm Calm 1.0 mph1.6 kmh 30.21 in1023.0 mb 0.00 in0.0 mm 0.00 in/hr0.0 mm/hr 0.00 in0.0 mm
03:40 AM 50.7°F10.4°C 47.6°F8.7°C 89% Calm Calm -- 30.20 in1022.7 mb 0.00 in0.0 mm 0.00 in/hr0.0 mm/hr 0.00 in0.0 mm
03:30 AM 51.1°F10.6°C 47.7°F8.7°C 88% Calm Calm -- 30.20 in1022.7 mb 0.00 in0.0 mm 0.00 in/hr0.0 mm/hr 0.00 in0.0 mm
03:20 AM 51.4°F10.8°C 48.0°F8.9°C 88% Calm Calm -- 30.21 in1023.0 mb 0.00 in0.0 mm 0.00 in/hr0.0 mm/hr 0.00 in0.0 mm
03:10 AM 51.9°F11.1°C 48.2°F9.0°C 87% Calm Calm -- 30.21 in1023.0 mb 0.00 in0.0 mm 0.00 in/hr0.0 mm/hr 0.00 in0.0 mm
03:00 AM 52.2°F11.2°C 48.1°F8.9°C 86% 0.3 mph NNE0.5 kmh NNE 2.0 mph3.2 kmh 30.21 in1023.0 mb 0.00 in0.0 mm 0.00 in/hr0.0 mm/hr 0.00 in0.0 mm
02:50 AM 52.4°F11.3°C 48.0°F8.9°C 85% 0.5 mph NNE0.8 kmh NNE 3.0 mph4.8 kmh 30.21 in1023.0 mb 0.00 in0.0 mm 0.00 in/hr0.0 mm/hr 0.00 in0.0 mm
02:40 AM 52.5°F11.4°C 48.1°F8.9°C 85% 1.0 mph NNE1.6 kmh NNE 4.0 mph6.4 kmh 30.21 in1023.0 mb 0.00 in0.0 mm 0.00 in/hr0.0 mm/hr 0.00 in0.0 mm
02:30 AM 52.6°F11.4°C 48.2°F9.0°C 85% 2.5 mph NNE4.0 kmh NNE 3.0 mph4.8 kmh 30.20 in1022.7 mb 0.00 in0.0 mm 0.00 in/hr0.0 mm/hr 0.00 in0.0 mm
02:20 AM 52.5°F11.4°C 48.1°F8.9°C 85% 0.6 mph NNE1.0 kmh NNE 4.0 mph6.4 kmh 30.21 in1023.0 mb 0.00 in0.0 mm 0.00 in/hr0.0 mm/hr 0.00 in0.0 mm
02:10 AM 52.7°F11.5°C 48.3°F9.1°C 85% 1.3 mph NNE2.1 kmh NNE 4.0 mph6.4 kmh 30.21 in1023.0 mb 0.00 in0.0 mm 0.00 in/hr0.0 mm/hr 0.00 in0.0 mm
02:00 AM 52.6°F11.4°C 48.2°F9.0°C 85% 2.4 mph NNE3.9 kmh NNE 5.0 mph8.0 kmh 30.21 in1023.0 mb 0.00 in0.0 mm 0.00 in/hr0.0 mm/hr 0.00 in0.0 mm
01:50 AM 53.0°F11.7°C 48.3°F9.1°C 84% 2.8 mph NNE4.5 kmh NNE 7.0 mph11.3 kmh 30.21 in1023.0 mb 0.00 in0.0 mm 0.00 in/hr0.0 mm/hr 0.00 in0.0 mm
01:40 AM 53.3°F11.8°C 48.3°F9.1°C 83% 0.6 mph NNE1.0 kmh NNE 3.0 mph4.8 kmh 30.21 in1023.0 mb 0.00 in0.0 mm 0.00 in/hr0.0 mm/hr 0.00 in0.0 mm
01:30 AM 53.7°F12.1°C 48.7°F9.3°C 83% Calm Calm 1.0 mph1.6 kmh 30.21 in1023.0 mb 0.00 in0.0 mm 0.00 in/hr0.0 mm/hr 0.00 in0.0 mm
01:20 AM 54.2°F12.3°C 48.8°F9.3°C 82% 1.9 mph NNE3.1 kmh NNE 5.0 mph8.0 kmh 30.21 in1023.0 mb 0.00 in0.0 mm 0.00 in/hr0.0 mm/hr 0.00 in0.0 mm
01:10 AM 54.4°F12.4°C 48.7°F9.3°C 81% 0.4 mph NNE0.6 kmh NNE 1.0 mph1.6 kmh 30.22 in1023.4 mb 0.00 in0.0 mm 0.00 in/hr0.0 mm/hr 0.00 in0.0 mm
01:00 AM 54.6°F12.6°C 48.9°F9.4°C 81% 0.3 mph NNE0.5 kmh NNE 3.0 mph4.8 kmh 30.22 in1023.4 mb 0.00 in0.0 mm 0.00 in/hr0.0 mm/hr 0.00 in0.0 mm
12:50 AM 54.6°F12.6°C 48.9°F9.4°C 81% Calm Calm 3.0 mph4.8 kmh 30.22 in1023.4 mb 0.00 in0.0 mm 0.00 in/hr0.0 mm/hr 0.00 in0.0 mm
12:40 AM 54.5°F12.5°C 48.8°F9.3°C 81% 0.2 mph N0.3 kmh N -- 30.22 in1023.4 mb 0.00 in0.0 mm 0.00 in/hr0.0 mm/hr 0.00 in0.0 mm
12:30 AM 54.3°F12.4°C 48.9°F9.4°C 82% Calm Calm 1.0 mph1.6 kmh 30.22 in1023.4 mb 0.00 in0.0 mm 0.00 in/hr0.0 mm/hr 0.00 in0.0 mm
12:20 AM 54.5°F12.5°C 48.8°F9.3°C 81% 0.1 mph N0.2 kmh N 1.0 mph1.6 kmh 30.21 in1023.0 mb 0.00 in0.0 mm 0.00 in/hr0.0 mm/hr 0.00 in0.0 mm
12:10 AM 55.0°F12.8°C 48.9°F9.4°C 80% 1.2 mph N1.9 kmh N 3.0 mph4.8 kmh 30.21 in1023.0 mb 0.00 in0.0 mm 0.00 in/hr0.0 mm/hr 0.00 in0.0 mm
12:00 AM 55.1°F12.8°C 49.0°F9.4°C 80% 1.6 mph NNE2.6 kmh NNE 4.0 mph6.4 kmh 30.21 in1023.0 mb 0.00 in0.0 mm 0.00 in/hr0.0 mm/hr 0.00 in0.0 mm